sensor_id;sensor_type;location;lat;lon;timestamp;pressure;altitude;pressure_sealevel;temperature;humidity
69245;BME280;56357;52.304;4.870;2023-02-12T00:02:19;104079.22;;;17.73;nan
69245;BME280;56357;52.304;4.870;2023-02-12T00:04:47;104081.81;;;17.74;nan
69245;BME280;56357;52.304;4.870;2023-02-12T00:07:13;104082.22;;;17.71;nan
69245;BME280;56357;52.304;4.870;2023-02-12T00:09:40;104077.91;;;17.69;nan
69245;BME280;56357;52.304;4.870;2023-02-12T00:12:07;104086.97;;;17.71;nan
69245;BME280;56357;52.304;4.870;2023-02-12T00:14:33;104089.56;;;17.72;nan
69245;BME280;56357;52.304;4.870;2023-02-12T00:17:01;104084.38;;;17.69;nan
69245;BME280;56357;52.304;4.870;2023-02-12T00:19:28;104086.09;;;17.70;nan
69245;BME280;56357;52.304;4.870;2023-02-12T00:21:55;104078.94;;;17.68;nan
69245;BME280;56357;52.304;4.870;2023-02-12T00:24:21;104086.50;;;17.67;nan
69245;BME280;56357;52.304;4.870;2023-02-12T00:26:48;104078.69;;;17.63;nan
69245;BME280;56357;52.304;4.870;2023-02-12T00:29:15;104074.41;;;17.67;nan
69245;BME280;56357;52.304;4.870;2023-02-12T00:31:41;104070.28;;;17.63;nan
69245;BME280;56357;52.304;4.870;2023-02-12T00:34:08;104084.28;;;17.63;nan
69245;BME280;56357;52.304;4.870;2023-02-12T00:36:35;104078.22;;;17.59;nan
69245;BME280;56357;52.304;4.870;2023-02-12T00:39:02;104076.09;;;17.61;nan
69245;BME280;56357;52.304;4.870;2023-02-12T00:41:29;104076.09;;;17.61;nan
69245;BME280;56357;52.304;4.870;2023-02-12T00:43:56;104077.56;;;17.57;nan
69245;BME280;56357;52.304;4.870;2023-02-12T00:46:22;104073.00;;;17.56;nan
69245;BME280;56357;52.304;4.870;2023-02-12T00:48:49;104065.69;;;17.55;nan
69245;BME280;56357;52.304;4.870;2023-02-12T00:51:15;104074.75;;;17.57;nan
69245;BME280;56357;52.304;4.870;2023-02-12T00:53:41;104066.06;;;17.52;nan
69245;BME280;56357;52.304;4.870;2023-02-12T00:56:08;104076.44;;;17.52;nan
69245;BME280;56357;52.304;4.870;2023-02-12T00:58:34;104073.41;;;17.53;nan
69245;BME280;56357;52.304;4.870;2023-02-12T01:01:01;104071.66;;;17.52;nan
69245;BME280;56357;52.304;4.870;2023-02-12T01:03:28;104060.88;;;17.49;nan
69245;BME280;56357;52.304;4.870;2023-02-12T01:05:54;104062.22;;;17.53;nan
69245;BME280;56357;52.304;4.870;2023-02-12T01:08:21;104058.72;;;17.51;nan
69245;BME280;56357;52.304;4.870;2023-02-12T01:10:59;104065.59;;;17.49;nan
69245;BME280;56357;52.304;4.870;2023-02-12T01:13:26;104070.34;;;17.48;nan
69245;BME280;56357;52.304;4.870;2023-02-12T01:16:01;104072.94;;;17.50;nan
69245;BME280;56357;52.304;4.870;2023-02-12T01:18:28;104071.00;;;17.50;nan
69245;BME280;56357;52.304;4.870;2023-02-12T01:20:55;104077.69;;;17.49;nan
69245;BME280;56357;52.304;4.870;2023-02-12T01:23:23;104070.69;;;17.45;nan
69245;BME280;56357;52.304;4.870;2023-02-12T01:25:50;104069.66;;;17.46;nan
69245;BME280;56357;52.304;4.870;2023-02-12T01:28:16;104072.47;;;17.46;nan
69245;BME280;56357;52.304;4.870;2023-02-12T01:30:42;104070.50;;;17.47;nan
69245;BME280;56357;52.304;4.870;2023-02-12T01:33:09;104074.59;;;17.44;nan
69245;BME280;56357;52.304;4.870;2023-02-12T01:35:36;104065.88;;;17.39;nan
69245;BME280;56357;52.304;4.870;2023-02-12T01:38:03;104075.84;;;17.42;nan
69245;BME280;56357;52.304;4.870;2023-02-12T01:40:30;104078.84;;;17.40;nan
69245;BME280;56357;52.304;4.870;2023-02-12T01:42:59;104082.50;;;17.40;nan
69245;BME280;56357;52.304;4.870;2023-02-12T01:48:01;104069.31;;;17.34;nan
69245;BME280;56357;52.304;4.870;2023-02-12T01:50:28;104077.50;;;17.36;nan
69245;BME280;56357;52.304;4.870;2023-02-12T01:52:56;104075.06;;;17.33;nan
69245;BME280;56357;52.304;4.870;2023-02-12T01:55:23;104076.16;;;17.32;nan
69245;BME280;56357;52.304;4.870;2023-02-12T01:57:50;104071.03;;;17.35;nan
69245;BME280;56357;52.304;4.870;2023-02-12T02:00:20;104065.84;;;17.32;nan
69245;BME280;56357;52.304;4.870;2023-02-12T02:02:50;104075.06;;;17.33;nan
69245;BME280;56357;52.304;4.870;2023-02-12T02:05:24;104064.97;;;17.32;nan
69245;BME280;56357;52.304;4.870;2023-02-12T02:07:53;104067.47;;;17.27;nan
69245;BME280;56357;52.304;4.870;2023-02-12T02:10:19;104067.47;;;17.27;nan
69245;BME280;56357;52.304;4.870;2023-02-12T02:12:46;104062.28;;;17.24;nan
69245;BME280;56357;52.304;4.870;2023-02-12T02:15:30;104067.88;;;17.24;nan
69245;BME280;56357;52.304;4.870;2023-02-12T02:18:01;104065.75;;;17.26;nan
69245;BME280;56357;52.304;4.870;2023-02-12T02:29:06;104066.16;;;17.23;nan
69245;BME280;56357;52.304;4.870;2023-02-12T02:32:21;104064.41;;;17.22;nan
69245;BME280;56357;52.304;4.870;2023-02-12T02:34:33;104069.31;;;17.20;nan
69245;BME280;56357;52.304;4.870;2023-02-12T02:37:22;104065.66;;;17.19;nan
69245;BME280;56357;52.304;4.870;2023-02-12T02:40:22;104069.31;;;17.20;nan
69245;BME280;56357;52.304;4.870;2023-02-12T02:45:34;104055.72;;;17.17;nan
69245;BME280;56357;52.304;4.870;2023-02-12T02:50:40;104052.94;;;17.17;nan
69245;BME280;56357;52.304;4.870;2023-02-12T02:53:16;104053.97;;;17.16;nan
69245;BME280;56357;52.304;4.870;2023-02-12T02:55:53;104059.59;;;17.16;nan
69245;BME280;56357;52.304;4.870;2023-02-12T02:58:25;104053.50;;;17.12;nan
69245;BME280;56357;52.304;4.870;2023-02-12T03:00:59;104053.31;;;17.14;nan
69245;BME280;56357;52.304;4.870;2023-02-12T03:06:35;104040.28;;;17.06;nan
69245;BME280;56357;52.304;4.870;2023-02-12T03:09:23;104038.84;;;17.10;nan
69245;BME280;56357;52.304;4.870;2023-02-12T03:11:55;104042.09;;;17.14;nan
69245;BME280;56357;52.304;4.870;2023-02-12T03:14:35;104046.56;;;17.08;nan
69245;BME280;56357;52.304;4.870;2023-02-12T03:17:09;104042.88;;;17.08;nan
69245;BME280;56357;52.304;4.870;2023-02-12T03:19:44;104039.41;;;17.06;nan
69245;BME280;56357;52.304;4.870;2023-02-12T03:22:23;104036.25;;;17.09;nan
69245;BME280;56357;52.304;4.870;2023-02-12T03:25:13;104040.28;;;17.06;nan
69245;BME280;56357;52.304;4.870;2023-02-12T03:27:51;104034.69;;;17.06;nan
69245;BME280;56357;52.304;4.870;2023-02-12T03:30:24;104033.81;;;17.06;nan
69245;BME280;56357;52.304;4.870;2023-02-12T03:33:13;104030.19;;;17.05;nan
69245;BME280;56357;52.304;4.870;2023-02-12T03:36:07;104034.91;;;17.05;nan
69245;BME280;56357;52.304;4.870;2023-02-12T03:38:47;104035.97;;;17.04;nan
69245;BME280;56357;52.304;4.870;2023-02-12T03:41:46;104041.75;;;17.02;nan
69245;BME280;56357;52.304;4.870;2023-02-12T03:44:40;104040.41;;;16.98;nan
69245;BME280;56357;52.304;4.870;2023-02-12T03:47:39;104046.00;;;16.98;nan
69245;BME280;56357;52.304;4.870;2023-02-12T03:50:25;104042.34;;;16.98;nan
69245;BME280;56357;52.304;4.870;2023-02-12T03:52:54;104048.63;;;17.00;nan
69245;BME280;56357;52.304;4.870;2023-02-12T03:55:20;104054.03;;;17.01;nan
69245;BME280;56357;52.304;4.870;2023-02-12T03:57:51;104059.03;;;17.06;nan
69245;BME280;56357;52.304;4.870;2023-02-12T04:00:21;104055.56;;;17.04;nan
69245;BME280;56357;52.304;4.870;2023-02-12T04:02:48;104054.50;;;17.05;nan
69245;BME280;56357;52.304;4.870;2023-02-12T04:05:24;104056.41;;;17.04;nan
69245;BME280;56357;52.304;4.870;2023-02-12T04:07:54;104064.44;;;17.07;nan
69245;BME280;56357;52.304;4.870;2023-02-12T04:10:27;104062.13;;;17.11;nan
69245;BME280;56357;52.304;4.870;2023-02-12T04:18:44;104066.16;;;17.08;nan
69245;BME280;56357;52.304;4.870;2023-02-12T04:21:26;104069.44;;;17.12;nan
69245;BME280;56357;52.304;4.870;2023-02-12T04:29:27;104070.06;;;17.07;nan
69245;BME280;56357;52.304;4.870;2023-02-12T04:32:04;104078.34;;;17.15;nan
69245;BME280;56357;52.304;4.870;2023-02-12T04:37:59;104086.25;;;17.12;nan
69245;BME280;56357;52.304;4.870;2023-02-12T04:40:27;104083.19;;;17.07;nan
69245;BME280;56357;52.304;4.870;2023-02-12T04:42:54;104098.44;;;17.04;nan
69245;BME280;56357;52.304;4.870;2023-02-12T04:45:27;104100.84;;;17.07;nan
69245;BME280;56357;52.304;4.870;2023-02-12T04:47:53;104084.84;;;17.01;nan
69245;BME280;56357;52.304;4.870;2023-02-12T04:50:20;104094.47;;;16.99;nan
69245;BME280;56357;52.304;4.870;2023-02-12T04:52:47;104094.47;;;17.13;nan
69245;BME280;56357;52.304;4.870;2023-02-12T04:55:14;104087.88;;;17.21;nan
69245;BME280;56357;52.304;4.870;2023-02-12T04:57:40;104107.59;;;17.13;nan
69245;BME280;56357;52.304;4.870;2023-02-12T05:00:11;104097.06;;;17.15;nan
69245;BME280;56357;52.304;4.870;2023-02-12T05:02:38;104085.88;;;17.15;nan
69245;BME280;56357;52.304;4.870;2023-02-12T05:05:05;104096.09;;;17.22;nan
69245;BME280;56357;52.304;4.870;2023-02-12T05:07:32;104094.06;;;17.16;nan
69245;BME280;56357;52.304;4.870;2023-02-12T05:09:58;104090.69;;;17.21;nan
69245;BME280;56357;52.304;4.870;2023-02-12T05:12:25;104080.94;;;17.17;nan
69245;BME280;56357;52.304;4.870;2023-02-12T05:14:51;104088.88;;;17.13;nan
69245;BME280;56357;52.304;4.870;2023-02-12T05:17:21;104085.34;;;17.26;nan
69245;BME280;56357;52.304;4.870;2023-02-12T05:19:47;104094.44;;;17.28;nan
69245;BME280;56357;52.304;4.870;2023-02-12T05:22:14;104090.28;;;17.24;nan
69245;BME280;56357;52.304;4.870;2023-02-12T05:24:40;104083.63;;;17.25;nan
69245;BME280;56357;52.304;4.870;2023-02-12T05:27:07;104087.75;;;17.29;nan
69245;BME280;56357;52.304;4.870;2023-02-12T05:29:35;104096.25;;;17.35;nan
69245;BME280;56357;52.304;4.870;2023-02-12T05:32:02;104088.72;;;17.36;nan
69245;BME280;56357;52.304;4.870;2023-02-12T05:34:29;104094.22;;;17.29;nan
69245;BME280;56357;52.304;4.870;2023-02-12T05:36:55;104082.81;;;17.31;nan
69245;BME280;56357;52.304;4.870;2023-02-12T05:39:22;104097.78;;;17.38;nan
69245;BME280;56357;52.304;4.870;2023-02-12T05:41:48;104091.84;;;17.26;nan
69245;BME280;56357;52.304;4.870;2023-02-12T05:44:15;104096.44;;;17.34;nan
69245;BME280;56357;52.304;4.870;2023-02-12T05:46:41;104100.13;;;17.34;nan
69245;BME280;56357;52.304;4.870;2023-02-12T05:49:08;104105.53;;;17.36;nan
69245;BME280;56357;52.304;4.870;2023-02-12T05:51:35;104096.50;;;17.40;nan
69245;BME280;56357;52.304;4.870;2023-02-12T05:54:04;104105.09;;;17.39;nan
69245;BME280;56357;52.304;4.870;2023-02-12T05:56:36;104103.84;;;17.42;nan
69245;BME280;56357;52.304;4.870;2023-02-12T05:59:10;104105.09;;;17.39;nan
69245;BME280;56357;52.304;4.870;2023-02-12T06:01:39;104091.09;;;17.39;nan
69245;BME280;56357;52.304;4.870;2023-02-12T06:04:09;104100.47;;;17.46;nan
69245;BME280;56357;52.304;4.870;2023-02-12T06:06:38;104101.94;;;17.42;nan
69245;BME280;56357;52.304;4.870;2023-02-12T06:09:06;104106.47;;;17.43;nan
69245;BME280;56357;52.304;4.870;2023-02-12T06:11:33;104106.91;;;17.47;nan
69245;BME280;56357;52.304;4.870;2023-02-12T06:14:04;104103.44;;;17.45;nan
69245;BME280;56357;52.304;4.870;2023-02-12T06:16:32;104104.19;;;17.32;nan
69245;BME280;56357;52.304;4.870;2023-02-12T06:19:03;104108.59;;;17.41;nan
69245;BME280;56357;52.304;4.870;2023-02-12T06:21:31;104105.19;;;17.46;nan
69245;BME280;56357;52.304;4.870;2023-02-12T06:23:58;104104.44;;;17.52;nan
69245;BME280;56357;52.304;4.870;2023-02-12T06:26:24;104096.22;;;17.50;nan
69245;BME280;56357;52.304;4.870;2023-02-12T06:28:51;104096.22;;;17.50;nan
69245;BME280;56357;52.304;4.870;2023-02-12T06:33:47;104104.06;;;17.40;nan
69245;BME280;56357;52.304;4.870;2023-02-12T06:36:14;104105.28;;;17.52;nan
69245;BME280;56357;52.304;4.870;2023-02-12T06:38:41;104106.19;;;17.74;nan
69245;BME280;56357;52.304;4.870;2023-02-12T06:41:08;104100.31;;;17.69;nan
69245;BME280;56357;52.304;4.870;2023-02-12T06:43:34;104110.19;;;17.65;nan
69245;BME280;56357;52.304;4.870;2023-02-12T06:46:02;104114.03;;;17.64;nan
69245;BME280;56357;52.304;4.870;2023-02-12T06:48:28;104098.84;;;17.52;nan
69245;BME280;56357;52.304;4.870;2023-02-12T06:50:55;104124.78;;;17.60;nan
69245;BME280;56357;52.304;4.870;2023-02-12T06:53:22;104114.00;;;17.57;nan
69245;BME280;56357;52.304;4.870;2023-02-12T06:55:48;104117.47;;;17.59;nan
69245;BME280;56357;52.304;4.870;2023-02-12T06:58:15;104116.06;;;17.70;nan
69245;BME280;56357;52.304;4.870;2023-02-12T07:00:41;104113.47;;;17.68;nan
69245;BME280;56357;52.304;4.870;2023-02-12T07:03:08;104118.47;;;17.73;nan
69245;BME280;56357;52.304;4.870;2023-02-12T07:05:38;104109.84;;;17.53;nan
69245;BME280;56357;52.304;4.870;2023-02-12T07:08:04;104116.47;;;17.67;nan
69245;BME280;56357;52.304;4.870;2023-02-12T07:10:31;104115.59;;;17.66;nan
69245;BME280;56357;52.304;4.870;2023-02-12T07:12:57;104114.72;;;17.66;nan
69245;BME280;56357;52.304;4.870;2023-02-12T07:15:24;104116.69;;;17.65;nan
69245;BME280;56357;52.304;4.870;2023-02-12T07:17:50;104120.06;;;17.61;nan
69245;BME280;56357;52.304;4.870;2023-02-12T07:20:17;104126.91;;;17.58;nan
69245;BME280;56357;52.304;4.870;2023-02-12T07:22:43;104133.50;;;17.65;nan
69245;BME280;56357;52.304;4.870;2023-02-12T07:25:09;104135.22;;;17.66;nan
69245;BME280;56357;52.304;4.870;2023-02-12T07:27:36;104131.34;;;17.67;nan
69245;BME280;56357;52.304;4.870;2023-02-12T07:30:04;104128.72;;;17.66;nan
69245;BME280;56357;52.304;4.870;2023-02-12T07:32:32;104134.34;;;17.66;nan
69245;BME280;56357;52.304;4.870;2023-02-12T07:34:59;104136.28;;;17.65;nan
69245;BME280;56357;52.304;4.870;2023-02-12T07:37:26;104138.91;;;17.67;nan
69245;BME280;56357;52.304;4.870;2023-02-12T07:39:52;104142.06;;;17.64;nan
69245;BME280;56357;52.304;4.870;2023-02-12T07:42:18;104149.22;;;17.66;nan
69245;BME280;56357;52.304;4.870;2023-02-12T07:44:45;104155.41;;;17.62;nan
69245;BME280;56357;52.304;4.870;2023-02-12T07:47:11;104147.31;;;17.67;nan
69245;BME280;56357;52.304;4.870;2023-02-12T07:49:38;104160.22;;;17.68;nan
69245;BME280;56357;52.304;4.870;2023-02-12T07:52:04;104166.13;;;17.73;nan
69245;BME280;56357;52.304;4.870;2023-02-12T07:54:31;104153.78;;;17.67;nan
69245;BME280;56357;52.304;4.870;2023-02-12T07:56:58;104160.06;;;17.69;nan
69245;BME280;56357;52.304;4.870;2023-02-12T07:59:25;104155.50;;;17.68;nan
69245;BME280;56357;52.304;4.870;2023-02-12T08:01:52;104168.53;;;17.76;nan
69245;BME280;56357;52.304;4.870;2023-02-12T08:04:22;104157.31;;;17.76;nan
69245;BME280;56357;52.304;4.870;2023-02-12T08:06:50;104163.34;;;17.73;nan
69245;BME280;56357;52.304;4.870;2023-02-12T08:09:24;104168.84;;;17.66;nan
69245;BME280;56357;52.304;4.870;2023-02-12T08:11:51;104174.34;;;17.74;nan
69245;BME280;56357;52.304;4.870;2023-02-12T08:14:19;104168.72;;;17.74;nan
69245;BME280;56357;52.304;4.870;2023-02-12T08:16:47;104173.13;;;17.83;nan
69245;BME280;56357;52.304;4.870;2023-02-12T08:19:14;104170.66;;;17.74;nan
69245;BME280;56357;52.304;4.870;2023-02-12T08:21:40;104173.25;;;17.75;nan
69245;BME280;56357;52.304;4.870;2023-02-12T08:24:09;104172.22;;;17.62;nan
69245;BME280;56357;52.304;4.870;2023-02-12T08:26:37;104165.38;;;17.64;nan
69245;BME280;56357;52.304;4.870;2023-02-12T08:29:12;104171.91;;;17.71;nan
69245;BME280;56357;52.304;4.870;2023-02-12T08:31:42;104169.94;;;17.65;nan
69245;BME280;56357;52.304;4.870;2023-02-12T08:34:29;104178.03;;;17.75;nan
69245;BME280;56357;52.304;4.870;2023-02-12T08:36:57;104179.84;;;17.68;nan
69245;BME280;56357;52.304;4.870;2023-02-12T08:39:26;104170.59;;;17.67;nan
69245;BME280;56357;52.304;4.870;2023-02-12T08:41:54;104181.88;;;17.74;nan
69245;BME280;56357;52.304;4.870;2023-02-12T08:44:21;104185.81;;;17.79;nan
69245;BME280;56357;52.304;4.870;2023-02-12T08:46:50;104191.03;;;17.82;nan
69245;BME280;56357;52.304;4.870;2023-02-12T08:49:22;104196.34;;;17.77;nan
69245;BME280;56357;52.304;4.870;2023-02-12T08:51:52;104198.09;;;17.78;nan
69245;BME280;56357;52.304;4.870;2023-02-12T08:54:25;104194.22;;;17.79;nan
69245;BME280;56357;52.304;4.870;2023-02-12T08:56:56;104192.22;;;17.73;nan
69245;BME280;56357;52.304;4.870;2023-02-12T08:59:23;104202.25;;;17.82;nan
69245;BME280;56357;52.304;4.870;2023-02-12T09:01:50;104208.25;;;18.00;nan
69245;BME280;56357;52.304;4.870;2023-02-12T09:04:20;104204.09;;;18.11;nan
69245;BME280;56357;52.304;4.870;2023-02-12T09:06:48;104204.53;;;18.14;nan
69245;BME280;56357;52.304;4.870;2023-02-12T09:09:16;104204.00;;;18.25;nan
69245;BME280;56357;52.304;4.870;2023-02-12T09:11:43;104210.06;;;18.29;nan
69245;BME280;56357;52.304;4.870;2023-02-12T09:14:13;104210.50;;;18.26;nan
69245;BME280;56357;52.304;4.870;2023-02-12T09:16:40;104209.59;;;18.04;nan
69245;BME280;56357;52.304;4.870;2023-02-12T09:19:07;104219.78;;;18.05;nan
69245;BME280;56357;52.304;4.870;2023-02-12T09:21:34;104213.50;;;18.03;nan
69245;BME280;56357;52.304;4.870;2023-02-12T09:24:01;104206.53;;;17.99;nan
69245;BME280;56357;52.304;4.870;2023-02-12T09:26:28;104211.19;;;17.92;nan
69245;BME280;56357;52.304;4.870;2023-02-12T09:28:54;104209.88;;;17.88;nan
69245;BME280;56357;52.304;4.870;2023-02-12T09:31:23;104209.41;;;18.06;nan
69245;BME280;56357;52.304;4.870;2023-02-12T09:33:52;104214.00;;;17.92;nan
69245;BME280;56357;52.304;4.870;2023-02-12T09:36:18;104200.06;;;17.99;nan
69245;BME280;56357;52.304;4.870;2023-02-12T09:38:45;104210.69;;;18.03;nan
69245;BME280;56357;52.304;4.870;2023-02-12T09:51:12;104206.94;;;18.17;nan
69245;BME280;56357;52.304;4.870;2023-02-12T09:53:42;104204.00;;;18.25;nan
69245;BME280;56357;52.304;4.870;2023-02-12T09:56:20;104207.00;;;18.24;nan
69245;BME280;56357;52.304;4.870;2023-02-12T09:58:53;104199.72;;;18.51;nan
69245;BME280;56357;52.304;4.870;2023-02-12T10:01:21;104209.81;;;19.28;nan
69245;BME280;56357;52.304;4.870;2023-02-12T10:03:50;104197.91;;;19.73;nan
69245;BME280;56357;52.304;4.870;2023-02-12T10:12:03;104192.91;;;19.62;nan
69245;BME280;56357;52.304;4.870;2023-02-12T10:28:25;104197.31;;;19.91;nan
69245;BME280;56357;52.304;4.870;2023-02-12T10:30:55;104202.56;;;20.07;nan
69245;BME280;56357;52.304;4.870;2023-02-12T10:38:54;104206.03;;;20.09;nan
69245;BME280;56357;52.304;4.870;2023-02-12T10:41:23;104202.75;;;19.99;nan
69245;BME280;56357;52.304;4.870;2023-02-12T10:43:52;104200.59;;;20.07;nan
69245;BME280;56357;52.304;4.870;2023-02-12T10:46:18;104198.66;;;20.01;nan
69245;BME280;56357;52.304;4.870;2023-02-12T10:48:48;104201.69;;;20.06;nan
69245;BME280;56357;52.304;4.870;2023-02-12T10:51:47;104197.78;;;20.07;nan
69245;BME280;56357;52.304;4.870;2023-02-12T10:54:43;104205.81;;;20.17;nan
69245;BME280;56357;52.304;4.870;2023-02-12T10:57:14;104204.28;;;20.08;nan
69245;BME280;56357;52.304;4.870;2023-02-12T10:59:43;104201.25;;;20.09;nan
69245;BME280;56357;52.304;4.870;2023-02-12T11:02:20;104198.47;;;20.16;nan
69245;BME280;56357;52.304;4.870;2023-02-12T11:04:47;104203.66;;;20.13;nan
69245;BME280;56357;52.304;4.870;2023-02-12T11:07:14;104199.50;;;20.02;nan
69245;BME280;56357;52.304;4.870;2023-02-12T11:09:43;104197.78;;;20.01;nan
69245;BME280;56357;52.304;4.870;2023-02-12T11:12:38;104204.28;;;20.08;nan
69245;BME280;56357;52.304;4.870;2023-02-12T11:15:12;104199.75;;;20.14;nan
69245;BME280;56357;52.304;4.870;2023-02-12T11:17:44;104192.63;;;20.11;nan
69245;BME280;56357;52.304;4.870;2023-02-12T11:22:58;104191.63;;;19.24;nan
69245;BME280;56357;52.304;4.870;2023-02-12T11:25:28;104206.72;;;19.23;nan
69245;BME280;56357;52.304;4.870;2023-02-12T11:27:58;104208.97;;;19.00;nan
69245;BME280;56357;52.304;4.870;2023-02-12T11:30:26;104202.78;;;19.11;nan
69245;BME280;56357;52.304;4.870;2023-02-12T11:32:52;104200.22;;;18.88;nan
69245;BME280;56357;52.304;4.870;2023-02-12T11:35:23;104198.44;;;18.81;nan
69245;BME280;56357;52.304;4.870;2023-02-12T11:37:54;104200.53;;;19.00;nan
69245;BME280;56357;52.304;4.870;2023-02-12T11:40:32;104195.84;;;19.07;nan
69245;BME280;56357;52.304;4.870;2023-02-12T11:43:06;104195.47;;;18.82;nan
69245;BME280;56357;52.304;4.870;2023-02-12T11:45:46;104191.63;;;18.90;nan
69245;BME280;56357;52.304;4.870;2023-02-12T11:48:21;104192.16;;;18.79;nan
69245;BME280;56357;52.304;4.870;2023-02-12T11:50:51;104187.72;;;18.84;nan
69245;BME280;56357;52.304;4.870;2023-02-12T11:53:24;104180.13;;;18.85;nan
69245;BME280;56357;52.304;4.870;2023-02-12T11:55:56;104185.06;;;18.83;nan
69245;BME280;56357;52.304;4.870;2023-02-12T11:58:24;104192.03;;;18.87;nan
69245;BME280;56357;52.304;4.870;2023-02-12T12:06:24;104191.53;;;18.77;nan
69245;BME280;56357;52.304;4.870;2023-02-12T12:09:04;104186.75;;;18.71;nan
69245;BME280;56357;52.304;4.870;2023-02-12T12:15:01;104187.41;;;18.73;nan
69245;BME280;56357;52.304;4.870;2023-02-12T12:17:53;104184.78;;;18.71;nan
69245;BME280;56357;52.304;4.870;2023-02-12T12:20:55;104178.50;;;18.69;nan
69245;BME280;56357;52.304;4.870;2023-02-12T12:24:02;104177.50;;;18.77;nan
69245;BME280;56357;52.304;4.870;2023-02-12T12:26:33;104176.84;;;18.75;nan
69245;BME280;56357;52.304;4.870;2023-02-12T12:31:36;104168.41;;;18.75;nan
69245;BME280;56357;52.304;4.870;2023-02-12T12:34:19;104176.31;;;18.65;nan
69245;BME280;56357;52.304;4.870;2023-02-12T13:16:13;104133.53;;;20.57;nan
69245;BME280;56357;52.304;4.870;2023-02-12T13:21:46;104131.16;;;20.67;nan
69245;BME280;56357;52.304;4.870;2023-02-12T13:24:41;104125.47;;;20.73;nan
69245;BME280;56357;52.304;4.870;2023-02-12T13:27:25;104130.06;;;20.68;nan
69245;BME280;56357;52.304;4.870;2023-02-12T13:32:43;104117.53;;;20.57;nan
69245;BME280;56357;52.304;4.870;2023-02-12T13:35:22;104114.25;;;20.67;nan
69245;BME280;56357;52.304;4.870;2023-02-12T13:37:54;104124.88;;;20.65;nan
69245;BME280;56357;52.304;4.870;2023-02-12T13:40:23;104115.88;;;20.94;nan
69245;BME280;56357;52.304;4.870;2023-02-12T13:45:54;104108.19;;;20.50;nan
69245;BME280;56357;52.304;4.870;2023-02-12T13:51:27;104106.00;;;20.78;nan
69245;BME280;56357;52.304;4.870;2023-02-12T13:56:47;104096.06;;;20.63;nan
69245;BME280;56357;52.304;4.870;2023-02-12T14:01:57;104094.72;;;20.72;nan
69245;BME280;56357;52.304;4.870;2023-02-12T14:07:11;104086.50;;;20.64;nan
69245;BME280;56357;52.304;4.870;2023-02-12T14:09:42;104095.88;;;20.51;nan
69245;BME280;56357;52.304;4.870;2023-02-12T14:14:55;104094.13;;;20.57;nan
69245;BME280;56357;52.304;4.870;2023-02-12T14:27:47;104091.31;;;20.44;nan
69245;BME280;56357;52.304;4.870;2023-02-12T14:35:40;104075.78;;;20.92;nan
69245;BME280;56357;52.304;4.870;2023-02-12T14:40:50;104076.53;;;20.68;nan
69245;BME280;56357;52.304;4.870;2023-02-12T14:45:55;104076.13;;;20.58;nan
69245;BME280;56357;52.304;4.870;2023-02-12T14:48:56;104079.63;;;20.47;nan
69245;BME280;56357;52.304;4.870;2023-02-12T14:53:53;104077.00;;;20.65;nan
69245;BME280;56357;52.304;4.870;2023-02-12T14:56:22;104075.94;;;20.00;nan
69245;BME280;56357;52.304;4.870;2023-02-12T14:58:51;104078.50;;;19.76;nan
69245;BME280;56357;52.304;4.870;2023-02-12T15:01:26;104081.31;;;19.69;nan
69245;BME280;56357;52.304;4.870;2023-02-12T15:03:56;104080.88;;;19.66;nan
69245;BME280;56357;52.304;4.870;2023-02-12T15:06:40;104064.84;;;19.53;nan
69245;BME280;56357;52.304;4.870;2023-02-12T15:09:12;104067.00;;;19.51;nan
69245;BME280;56357;52.304;4.870;2023-02-12T15:11:45;104068.50;;;19.54;nan
69245;BME280;56357;52.304;4.870;2023-02-12T15:14:21;104054.03;;;19.44;nan
69245;BME280;56357;52.304;4.870;2023-02-12T15:17:16;104067.22;;;19.50;nan
69245;BME280;56357;52.304;4.870;2023-02-12T15:27:49;104066.22;;;19.23;nan
69245;BME280;56357;52.304;4.870;2023-02-12T15:30:21;104063.69;;;19.35;nan
69245;BME280;56357;52.304;4.870;2023-02-12T15:32:49;104067.53;;;19.27;nan
69245;BME280;56357;52.304;4.870;2023-02-12T15:35:27;104069.28;;;19.28;nan
69245;BME280;56357;52.304;4.870;2023-02-12T15:37:55;104067.75;;;19.26;nan
69245;BME280;56357;52.304;4.870;2023-02-12T15:40:24;104069.03;;;19.23;nan
69245;BME280;56357;52.304;4.870;2023-02-12T15:42:56;104053.03;;;19.17;nan
69245;BME280;56357;52.304;4.870;2023-02-12T15:45:28;104063.38;;;19.10;nan
69245;BME280;56357;52.304;4.870;2023-02-12T15:48:16;104053.63;;;19.06;nan
69245;BME280;56357;52.304;4.870;2023-02-12T15:50:58;104053.59;;;19.40;nan
69245;BME280;56357;52.304;4.870;2023-02-12T15:53:28;104065.66;;;19.34;nan
69245;BME280;56357;52.304;4.870;2023-02-12T15:55:57;104065.16;;;19.24;nan
69245;BME280;56357;52.304;4.870;2023-02-12T15:58:28;104060.41;;;19.31;nan
69245;BME280;56357;52.304;4.870;2023-02-12T16:01:04;104065.03;;;19.45;nan
69245;BME280;56357;52.304;4.870;2023-02-12T16:03:33;104060.91;;;19.41;nan
69245;BME280;56357;52.304;4.870;2023-02-12T16:06:06;104060.06;;;19.54;nan
69245;BME280;56357;52.304;4.870;2023-02-12T16:08:36;104060.06;;;19.54;nan
69245;BME280;56357;52.304;4.870;2023-02-12T16:11:04;104048.41;;;19.44;nan
69245;BME280;56357;52.304;4.870;2023-02-12T16:13:42;104052.28;;;19.56;nan
69245;BME280;56357;52.304;4.870;2023-02-12T16:18:40;104052.97;;;19.04;nan
69245;BME280;56357;52.304;4.870;2023-02-12T16:21:19;104062.88;;;19.00;nan
69245;BME280;56357;52.304;4.870;2023-02-12T16:23:49;104062.88;;;19.00;nan
69245;BME280;56357;52.304;4.870;2023-02-12T16:26:19;104058.78;;;18.96;nan
69245;BME280;56357;52.304;4.870;2023-02-12T16:28:47;104070.22;;;18.94;nan
69245;BME280;56357;52.304;4.870;2023-02-12T16:31:15;104069.78;;;18.91;nan
69245;BME280;56357;52.304;4.870;2023-02-12T16:33:48;104062.44;;;18.90;nan